sensor_id;sensor_type;location;lat;lon;timestamp;P1;durP1;ratioP1;P2;durP2;ratioP2
33993;SDS011;20673;48.980;8.138;2022-08-01T00:01:13;3.75;;;2.75;;
33993;SDS011;20673;48.980;8.138;2022-08-01T00:03:40;4.87;;;2.80;;
33993;SDS011;20673;48.980;8.138;2022-08-01T00:06:06;2.50;;;2.22;;
33993;SDS011;20673;48.980;8.138;2022-08-01T00:08:33;3.85;;;2.60;;
33993;SDS011;20673;48.980;8.138;2022-08-01T00:10:59;2.65;;;2.45;;
33993;SDS011;20673;48.980;8.138;2022-08-01T00:13:25;2.60;;;2.37;;
33993;SDS011;20673;48.980;8.138;2022-08-01T00:15:51;4.53;;;3.27;;
33993;SDS011;20673;48.980;8.138;2022-08-01T00:18:17;3.45;;;2.65;;
33993;SDS011;20673;48.980;8.138;2022-08-01T00:20:43;2.52;;;2.22;;
33993;SDS011;20673;48.980;8.138;2022-08-01T00:23:10;3.22;;;2.85;;
33993;SDS011;20673;48.980;8.138;2022-08-01T00:25:36;3.22;;;2.92;;
33993;SDS011;20673;48.980;8.138;2022-08-01T00:28:02;3.05;;;2.65;;
33993;SDS011;20673;48.980;8.138;2022-08-01T00:30:28;4.65;;;2.83;;
33993;SDS011;20673;48.980;8.138;2022-08-01T00:32:54;4.42;;;2.62;;
33993;SDS011;20673;48.980;8.138;2022-08-01T00:35:20;7.22;;;3.12;;
33993;SDS011;20673;48.980;8.138;2022-08-01T00:37:47;4.75;;;2.50;;
33993;SDS011;20673;48.980;8.138;2022-08-01T00:40:13;5.53;;;2.90;;
33993;SDS011;20673;48.980;8.138;2022-08-01T00:42:39;6.45;;;2.92;;
33993;SDS011;20673;48.980;8.138;2022-08-01T00:45:07;3.27;;;2.53;;
33993;SDS011;20673;48.980;8.138;2022-08-01T00:47:34;3.00;;;2.70;;
33993;SDS011;20673;48.980;8.138;2022-08-01T00:50:00;8.45;;;3.58;;
33993;SDS011;20673;48.980;8.138;2022-08-01T00:52:32;5.67;;;2.72;;
33993;SDS011;20673;48.980;8.138;2022-08-01T00:54:59;3.80;;;2.70;;
33993;SDS011;20673;48.980;8.138;2022-08-01T00:57:26;4.45;;;3.00;;
33993;SDS011;20673;48.980;8.138;2022-08-01T00:59:53;3.67;;;2.87;;
33993;SDS011;20673;48.980;8.138;2022-08-01T01:02:20;3.43;;;3.00;;
33993;SDS011;20673;48.980;8.138;2022-08-01T01:04:46;4.30;;;3.03;;
33993;SDS011;20673;48.980;8.138;2022-08-01T01:07:15;3.77;;;2.97;;
33993;SDS011;20673;48.980;8.138;2022-08-01T01:09:50;4.07;;;3.00;;
33993;SDS011;20673;48.980;8.138;2022-08-01T01:18:15;3.90;;;3.13;;
33993;SDS011;20673;48.980;8.138;2022-08-01T01:21:35;5.07;;;2.93;;
33993;SDS011;20673;48.980;8.138;2022-08-01T01:32:10;4.08;;;3.00;;
33993;SDS011;20673;48.980;8.138;2022-08-01T01:34:46;4.60;;;3.47;;
33993;SDS011;20673;48.980;8.138;2022-08-01T01:37:17;3.33;;;3.03;;
33993;SDS011;20673;48.980;8.138;2022-08-01T01:39:46;4.10;;;3.23;;
33993;SDS011;20673;48.980;8.138;2022-08-01T01:42:16;3.70;;;3.00;;
33993;SDS011;20673;48.980;8.138;2022-08-01T01:44:47;4.47;;;3.37;;
33993;SDS011;20673;48.980;8.138;2022-08-01T01:47:16;2.75;;;2.55;;
33993;SDS011;20673;48.980;8.138;2022-08-01T01:49:44;4.53;;;3.27;;
33993;SDS011;20673;48.980;8.138;2022-08-01T01:52:13;3.95;;;2.85;;
33993;SDS011;20673;48.980;8.138;2022-08-01T01:54:44;4.10;;;3.20;;
33993;SDS011;20673;48.980;8.138;2022-08-01T01:57:14;5.78;;;2.92;;
33993;SDS011;20673;48.980;8.138;2022-08-01T01:59:42;3.40;;;3.10;;
33993;SDS011;20673;48.980;8.138;2022-08-01T02:02:11;4.35;;;3.30;;
33993;SDS011;20673;48.980;8.138;2022-08-01T02:04:41;3.67;;;3.37;;
33993;SDS011;20673;48.980;8.138;2022-08-01T02:07:11;4.50;;;3.83;;
33993;SDS011;20673;48.980;8.138;2022-08-01T02:09:41;3.42;;;3.12;;
33993;SDS011;20673;48.980;8.138;2022-08-01T02:12:12;3.73;;;3.33;;
33993;SDS011;20673;48.980;8.138;2022-08-01T02:14:41;5.37;;;3.22;;
33993;SDS011;20673;48.980;8.138;2022-08-01T02:17:11;3.58;;;3.27;;
33993;SDS011;20673;48.980;8.138;2022-08-01T02:19:41;3.47;;;3.17;;
33993;SDS011;20673;48.980;8.138;2022-08-01T02:22:13;3.77;;;3.30;;
33993;SDS011;20673;48.980;8.138;2022-08-01T02:27:42;4.35;;;3.33;;
33993;SDS011;20673;48.980;8.138;2022-08-01T02:30:21;4.35;;;2.98;;
33993;SDS011;20673;48.980;8.138;2022-08-01T02:32:51;5.43;;;3.47;;
33993;SDS011;20673;48.980;8.138;2022-08-01T02:35:33;4.25;;;3.42;;
33993;SDS011;20673;48.980;8.138;2022-08-01T02:38:06;4.53;;;3.40;;
33993;SDS011;20673;48.980;8.138;2022-08-01T02:40:35;7.83;;;4.05;;
33993;SDS011;20673;48.980;8.138;2022-08-01T02:43:06;3.50;;;3.10;;
33993;SDS011;20673;48.980;8.138;2022-08-01T02:45:37;4.60;;;4.00;;
33993;SDS011;20673;48.980;8.138;2022-08-01T02:48:11;3.52;;;3.22;;
33993;SDS011;20673;48.980;8.138;2022-08-01T02:50:41;4.42;;;3.27;;
33993;SDS011;20673;48.980;8.138;2022-08-01T02:53:12;4.67;;;3.60;;
33993;SDS011;20673;48.980;8.138;2022-08-01T02:55:40;6.28;;;3.30;;
33993;SDS011;20673;48.980;8.138;2022-08-01T02:58:10;6.03;;;3.50;;
33993;SDS011;20673;48.980;8.138;2022-08-01T03:00:41;3.93;;;3.53;;
33993;SDS011;20673;48.980;8.138;2022-08-01T03:03:10;4.55;;;3.60;;
33993;SDS011;20673;48.980;8.138;2022-08-01T03:05:37;4.03;;;3.70;;
33993;SDS011;20673;48.980;8.138;2022-08-01T03:08:06;6.28;;;3.42;;
33993;SDS011;20673;48.980;8.138;2022-08-01T03:10:34;4.37;;;3.67;;
33993;SDS011;20673;48.980;8.138;2022-08-01T03:13:05;5.27;;;3.93;;
33993;SDS011;20673;48.980;8.138;2022-08-01T03:15:36;3.52;;;3.22;;
33993;SDS011;20673;48.980;8.138;2022-08-01T03:18:06;3.47;;;3.17;;
33993;SDS011;20673;48.980;8.138;2022-08-01T03:20:37;4.97;;;3.83;;
33993;SDS011;20673;48.980;8.138;2022-08-01T03:23:04;4.20;;;3.80;;
33993;SDS011;20673;48.980;8.138;2022-08-01T03:25:34;4.08;;;3.67;;
33993;SDS011;20673;48.980;8.138;2022-08-01T03:28:05;4.67;;;3.40;;
33993;SDS011;20673;48.980;8.138;2022-08-01T03:30:33;3.77;;;3.37;;
33993;SDS011;20673;48.980;8.138;2022-08-01T03:33:03;3.87;;;3.53;;
33993;SDS011;20673;48.980;8.138;2022-08-01T03:35:30;4.67;;;3.70;;
33993;SDS011;20673;48.980;8.138;2022-08-01T03:38:04;4.70;;;3.40;;
33993;SDS011;20673;48.980;8.138;2022-08-01T03:40:40;3.90;;;3.50;;
33993;SDS011;20673;48.980;8.138;2022-08-01T03:43:12;3.33;;;3.03;;
33993;SDS011;20673;48.980;8.138;2022-08-01T03:45:58;4.37;;;3.50;;
33993;SDS011;20673;48.980;8.138;2022-08-01T03:48:30;4.17;;;3.77;;
33993;SDS011;20673;48.980;8.138;2022-08-01T03:51:01;4.62;;;4.00;;
33993;SDS011;20673;48.980;8.138;2022-08-01T03:53:30;5.80;;;3.65;;
33993;SDS011;20673;48.980;8.138;2022-08-01T03:56:00;4.50;;;4.10;;
33993;SDS011;20673;48.980;8.138;2022-08-01T03:58:29;5.93;;;3.70;;
33993;SDS011;20673;48.980;8.138;2022-08-01T04:00:57;4.50;;;4.00;;
33993;SDS011;20673;48.980;8.138;2022-08-01T04:03:24;8.23;;;4.17;;
33993;SDS011;20673;48.980;8.138;2022-08-01T04:05:51;5.77;;;3.97;;
33993;SDS011;20673;48.980;8.138;2022-08-01T04:08:18;3.93;;;3.63;;
33993;SDS011;20673;48.980;8.138;2022-08-01T04:10:44;3.90;;;3.60;;
33993;SDS011;20673;48.980;8.138;2022-08-01T04:13:10;4.50;;;4.10;;
33993;SDS011;20673;48.980;8.138;2022-08-01T04:15:36;4.63;;;3.73;;
33993;SDS011;20673;48.980;8.138;2022-08-01T04:18:02;5.53;;;3.70;;
33993;SDS011;20673;48.980;8.138;2022-08-01T04:20:29;4.43;;;3.70;;
33993;SDS011;20673;48.980;8.138;2022-08-01T04:22:55;5.20;;;3.97;;
33993;SDS011;20673;48.980;8.138;2022-08-01T04:25:22;4.47;;;3.50;;
33993;SDS011;20673;48.980;8.138;2022-08-01T04:27:56;4.30;;;3.90;;
33993;SDS011;20673;48.980;8.138;2022-08-01T04:30:27;4.33;;;4.00;;
33993;SDS011;20673;48.980;8.138;2022-08-01T04:32:57;4.80;;;4.03;;
33993;SDS011;20673;48.980;8.138;2022-08-01T04:35:26;4.37;;;3.97;;
33993;SDS011;20673;48.980;8.138;2022-08-01T04:37:55;4.10;;;3.67;;
33993;SDS011;20673;48.980;8.138;2022-08-01T04:40:24;4.30;;;3.77;;
33993;SDS011;20673;48.980;8.138;2022-08-01T04:42:51;4.00;;;3.60;;
33993;SDS011;20673;48.980;8.138;2022-08-01T04:45:18;4.53;;;3.98;;
33993;SDS011;20673;48.980;8.138;2022-08-01T04:47:44;5.92;;;4.10;;
33993;SDS011;20673;48.980;8.138;2022-08-01T04:50:13;4.40;;;3.65;;
33993;SDS011;20673;48.980;8.138;2022-08-01T04:52:39;5.17;;;3.90;;
33993;SDS011;20673;48.980;8.138;2022-08-01T04:55:07;4.20;;;3.80;;
33993;SDS011;20673;48.980;8.138;2022-08-01T04:57:36;4.30;;;3.80;;
33993;SDS011;20673;48.980;8.138;2022-08-01T05:00:06;5.83;;;4.07;;
33993;SDS011;20673;48.980;8.138;2022-08-01T05:02:33;5.63;;;4.20;;
33993;SDS011;20673;48.980;8.138;2022-08-01T05:04:59;4.62;;;4.22;;
33993;SDS011;20673;48.980;8.138;2022-08-01T05:07:26;5.35;;;3.83;;
33993;SDS011;20673;48.980;8.138;2022-08-01T05:09:52;4.45;;;4.05;;
33993;SDS011;20673;48.980;8.138;2022-08-01T05:12:18;4.67;;;3.70;;
33993;SDS011;20673;48.980;8.138;2022-08-01T05:14:44;5.10;;;3.93;;
33993;SDS011;20673;48.980;8.138;2022-08-01T05:17:11;4.05;;;3.33;;
33993;SDS011;20673;48.980;8.138;2022-08-01T05:19:37;4.00;;;3.63;;
33993;SDS011;20673;48.980;8.138;2022-08-01T05:22:06;4.87;;;3.77;;
33993;SDS011;20673;48.980;8.138;2022-08-01T05:24:34;5.03;;;3.73;;
33993;SDS011;20673;48.980;8.138;2022-08-01T05:27:02;4.13;;;3.43;;
33993;SDS011;20673;48.980;8.138;2022-08-01T05:29:30;3.70;;;3.40;;
33993;SDS011;20673;48.980;8.138;2022-08-01T05:31:56;6.95;;;3.47;;
33993;SDS011;20673;48.980;8.138;2022-08-01T05:34:24;4.85;;;3.35;;
33993;SDS011;20673;48.980;8.138;2022-08-01T05:36:51;5.03;;;3.40;;
33993;SDS011;20673;48.980;8.138;2022-08-01T05:39:18;4.42;;;2.87;;
33993;SDS011;20673;48.980;8.138;2022-08-01T05:41:44;3.70;;;3.15;;
33993;SDS011;20673;48.980;8.138;2022-08-01T05:44:11;4.37;;;3.40;;
33993;SDS011;20673;48.980;8.138;2022-08-01T05:46:37;3.42;;;3.12;;
33993;SDS011;20673;48.980;8.138;2022-08-01T05:49:04;3.87;;;2.90;;
33993;SDS011;20673;48.980;8.138;2022-08-01T05:51:30;4.17;;;3.22;;
33993;SDS011;20673;48.980;8.138;2022-08-01T05:53:57;7.33;;;2.98;;
33993;SDS011;20673;48.980;8.138;2022-08-01T05:56:24;5.62;;;3.92;;
33993;SDS011;20673;48.980;8.138;2022-08-01T05:58:50;4.58;;;3.47;;
33993;SDS011;20673;48.980;8.138;2022-08-01T06:01:17;4.15;;;3.27;;
33993;SDS011;20673;48.980;8.138;2022-08-01T06:03:44;4.78;;;3.15;;
33993;SDS011;20673;48.980;8.138;2022-08-01T06:06:11;4.05;;;3.12;;
33993;SDS011;20673;48.980;8.138;2022-08-01T06:08:39;4.90;;;3.30;;
33993;SDS011;20673;48.980;8.138;2022-08-01T06:11:06;4.85;;;3.33;;
33993;SDS011;20673;48.980;8.138;2022-08-01T06:13:32;5.78;;;3.15;;
33993;SDS011;20673;48.980;8.138;2022-08-01T06:15:59;4.85;;;3.05;;
33993;SDS011;20673;48.980;8.138;2022-08-01T06:18:25;3.25;;;2.70;;
33993;SDS011;20673;48.980;8.138;2022-08-01T06:20:51;3.98;;;3.17;;
33993;SDS011;20673;48.980;8.138;2022-08-01T06:23:17;5.47;;;3.10;;
33993;SDS011;20673;48.980;8.138;2022-08-01T06:25:43;3.27;;;2.98;;
33993;SDS011;20673;48.980;8.138;2022-08-01T06:28:09;4.35;;;3.35;;
33993;SDS011;20673;48.980;8.138;2022-08-01T06:30:36;4.08;;;2.60;;
33993;SDS011;20673;48.980;8.138;2022-08-01T06:33:02;3.12;;;2.42;;
33993;SDS011;20673;48.980;8.138;2022-08-01T06:35:28;4.15;;;2.40;;
33993;SDS011;20673;48.980;8.138;2022-08-01T06:37:55;5.33;;;2.83;;
33993;SDS011;20673;48.980;8.138;2022-08-01T06:40:24;3.50;;;2.22;;
33993;SDS011;20673;48.980;8.138;2022-08-01T06:42:50;2.92;;;2.50;;
33993;SDS011;20673;48.980;8.138;2022-08-01T06:45:16;3.50;;;2.17;;
33993;SDS011;20673;48.980;8.138;2022-08-01T06:47:44;3.70;;;2.20;;
33993;SDS011;20673;48.980;8.138;2022-08-01T06:50:11;2.22;;;2.00;;
33993;SDS011;20673;48.980;8.138;2022-08-01T06:52:39;3.20;;;2.10;;
33993;SDS011;20673;48.980;8.138;2022-08-01T06:55:07;3.17;;;2.25;;
33993;SDS011;20673;48.980;8.138;2022-08-01T06:57:34;2.62;;;1.72;;
33993;SDS011;20673;48.980;8.138;2022-08-01T07:00:01;2.92;;;2.10;;
33993;SDS011;20673;48.980;8.138;2022-08-01T07:04:58;2.42;;;1.62;;
33993;SDS011;20673;48.980;8.138;2022-08-01T07:07:26;2.15;;;1.70;;
33993;SDS011;20673;48.980;8.138;2022-08-01T07:09:52;2.87;;;1.47;;
33993;SDS011;20673;48.980;8.138;2022-08-01T07:12:18;3.33;;;1.50;;
33993;SDS011;20673;48.980;8.138;2022-08-01T07:14:44;3.70;;;1.20;;
33993;SDS011;20673;48.980;8.138;2022-08-01T07:17:11;2.08;;;1.32;;
33993;SDS011;20673;48.980;8.138;2022-08-01T07:19:37;1.98;;;1.05;;
33993;SDS011;20673;48.980;8.138;2022-08-01T07:22:03;2.50;;;1.20;;
33993;SDS011;20673;48.980;8.138;2022-08-01T07:24:29;1.98;;;1.17;;
33993;SDS011;20673;48.980;8.138;2022-08-01T07:26:55;2.77;;;1.20;;
33993;SDS011;20673;48.980;8.138;2022-08-01T07:29:23;1.75;;;0.82;;
33993;SDS011;20673;48.980;8.138;2022-08-01T07:31:54;8.03;;;1.67;;
33993;SDS011;20673;48.980;8.138;2022-08-01T07:36:50;1.57;;;0.95;;
33993;SDS011;20673;48.980;8.138;2022-08-01T07:39:17;1.17;;;1.07;;
33993;SDS011;20673;48.980;8.138;2022-08-01T07:41:44;1.22;;;0.98;;
33993;SDS011;20673;48.980;8.138;2022-08-01T07:44:10;3.27;;;0.80;;
33993;SDS011;20673;48.980;8.138;2022-08-01T07:46:36;1.75;;;0.82;;
33993;SDS011;20673;48.980;8.138;2022-08-01T07:49:02;2.95;;;1.12;;
33993;SDS011;20673;48.980;8.138;2022-08-01T07:51:29;2.98;;;1.20;;
33993;SDS011;20673;48.980;8.138;2022-08-01T07:53:55;1.70;;;1.00;;
33993;SDS011;20673;48.980;8.138;2022-08-01T07:56:21;1.22;;;1.00;;
33993;SDS011;20673;48.980;8.138;2022-08-01T07:58:49;2.65;;;0.98;;
33993;SDS011;20673;48.980;8.138;2022-08-01T08:01:16;2.12;;;1.20;;
33993;SDS011;20673;48.980;8.138;2022-08-01T08:03:43;1.25;;;1.10;;
33993;SDS011;20673;48.980;8.138;2022-08-01T08:06:09;1.37;;;1.20;;
33993;SDS011;20673;48.980;8.138;2022-08-01T08:08:35;1.37;;;1.05;;
33993;SDS011;20673;48.980;8.138;2022-08-01T08:11:01;3.42;;;1.50;;
33993;SDS011;20673;48.980;8.138;2022-08-01T08:13:27;3.62;;;1.37;;
33993;SDS011;20673;48.980;8.138;2022-08-01T08:15:54;2.42;;;1.40;;
33993;SDS011;20673;48.980;8.138;2022-08-01T08:18:21;2.00;;;1.10;;
33993;SDS011;20673;48.980;8.138;2022-08-01T08:20:47;1.80;;;1.10;;
33993;SDS011;20673;48.980;8.138;2022-08-01T08:23:13;1.90;;;1.20;;
33993;SDS011;20673;48.980;8.138;2022-08-01T08:25:57;1.55;;;1.02;;
33993;SDS011;20673;48.980;8.138;2022-08-01T08:28:23;2.40;;;1.22;;
33993;SDS011;20673;48.980;8.138;2022-08-01T08:30:50;1.57;;;1.00;;
33993;SDS011;20673;48.980;8.138;2022-08-01T08:33:16;1.25;;;0.80;;
33993;SDS011;20673;48.980;8.138;2022-08-01T08:35:42;2.00;;;1.00;;
33993;SDS011;20673;48.980;8.138;2022-08-01T08:38:08;2.75;;;1.07;;
33993;SDS011;20673;48.980;8.138;2022-08-01T08:40:35;2.02;;;1.45;;
33993;SDS011;20673;48.980;8.138;2022-08-01T08:43:03;1.67;;;1.22;;
33993;SDS011;20673;48.980;8.138;2022-08-01T08:45:31;2.77;;;1.30;;
33993;SDS011;20673;48.980;8.138;2022-08-01T08:47:59;1.57;;;1.30;;
33993;SDS011;20673;48.980;8.138;2022-08-01T08:50:26;1.98;;;1.35;;
33993;SDS011;20673;48.980;8.138;2022-08-01T08:52:54;3.25;;;1.57;;
33993;SDS011;20673;48.980;8.138;2022-08-01T08:55:21;5.78;;;1.55;;
33993;SDS011;20673;48.980;8.138;2022-08-01T08:57:49;1.40;;;1.30;;
33993;SDS011;20673;48.980;8.138;2022-08-01T09:00:18;2.10;;;1.40;;
33993;SDS011;20673;48.980;8.138;2022-08-01T09:02:45;1.75;;;1.30;;
33993;SDS011;20673;48.980;8.138;2022-08-01T09:05:14;3.30;;;1.40;;
33993;SDS011;20673;48.980;8.138;2022-08-01T09:07:42;2.25;;;1.67;;
33993;SDS011;20673;48.980;8.138;2022-08-01T09:10:08;1.87;;;1.50;;
33993;SDS011;20673;48.980;8.138;2022-08-01T09:12:36;2.58;;;1.35;;
33993;SDS011;20673;48.980;8.138;2022-08-01T09:15:03;9.05;;;2.42;;
33993;SDS011;20673;48.980;8.138;2022-08-01T09:17:38;2.80;;;1.27;;
33993;SDS011;20673;48.980;8.138;2022-08-01T09:20:07;5.08;;;1.95;;
33993;SDS011;20673;48.980;8.138;2022-08-01T09:22:38;2.72;;;1.50;;
33993;SDS011;20673;48.980;8.138;2022-08-01T09:27:36;1.57;;;1.47;;
33993;SDS011;20673;48.980;8.138;2022-08-01T09:30:09;1.67;;;1.57;;
33993;SDS011;20673;48.980;8.138;2022-08-01T09:32:36;2.25;;;1.52;;
33993;SDS011;20673;48.980;8.138;2022-08-01T09:35:21;2.77;;;1.75;;
33993;SDS011;20673;48.980;8.138;2022-08-01T09:38:13;1.55;;;1.42;;
33993;SDS011;20673;48.980;8.138;2022-08-01T09:43:25;1.70;;;1.32;;
33993;SDS011;20673;48.980;8.138;2022-08-01T09:45:54;2.80;;;1.50;;
33993;SDS011;20673;48.980;8.138;2022-08-01T09:48:21;1.98;;;1.50;;
33993;SDS011;20673;48.980;8.138;2022-08-01T09:50:51;1.82;;;1.30;;
33993;SDS011;20673;48.980;8.138;2022-08-01T09:53:19;2.37;;;1.62;;
33993;SDS011;20673;48.980;8.138;2022-08-01T09:55:45;1.65;;;1.55;;
33993;SDS011;20673;48.980;8.138;2022-08-01T09:58:12;4.00;;;1.50;;
33993;SDS011;20673;48.980;8.138;2022-08-01T10:00:38;1.72;;;1.45;;
33993;SDS011;20673;48.980;8.138;2022-08-01T10:03:18;1.85;;;1.50;;
33993;SDS011;20673;48.980;8.138;2022-08-01T10:05:47;1.55;;;1.17;;
33993;SDS011;20673;48.980;8.138;2022-08-01T10:08:14;2.47;;;1.27;;
33993;SDS011;20673;48.980;8.138;2022-08-01T10:10:40;2.35;;;1.62;;
33993;SDS011;20673;48.980;8.138;2022-08-01T10:13:08;4.05;;;1.62;;
33993;SDS011;20673;48.980;8.138;2022-08-01T10:15:36;1.77;;;1.40;;
33993;SDS011;20673;48.980;8.138;2022-08-01T10:18:06;2.08;;;1.70;;
33993;SDS011;20673;48.980;8.138;2022-08-01T10:20:34;2.42;;;1.52;;
33993;SDS011;20673;48.980;8.138;2022-08-01T10:23:01;2.40;;;1.62;;
33993;SDS011;20673;48.980;8.138;2022-08-01T10:25:34;2.30;;;1.67;;
33993;SDS011;20673;48.980;8.138;2022-08-01T10:28:06;2.95;;;1.80;;
33993;SDS011;20673;48.980;8.138;2022-08-01T10:30:41;2.95;;;1.77;;
33993;SDS011;20673;48.980;8.138;2022-08-01T10:33:09;2.55;;;1.87;;
33993;SDS011;20673;48.980;8.138;2022-08-01T10:35:38;3.35;;;2.00;;
33993;SDS011;20673;48.980;8.138;2022-08-01T10:38:05;2.85;;;2.15;;
33993;SDS011;20673;48.980;8.138;2022-08-01T10:40:32;2.83;;;2.08;;
33993;SDS011;20673;48.980;8.138;2022-08-01T10:43:01;2.33;;;1.90;;
33993;SDS011;20673;48.980;8.138;2022-08-01T10:45:28;2.35;;;1.70;;
33993;SDS011;20673;48.980;8.138;2022-08-01T10:48:06;2.37;;;2.10;;
33993;SDS011;20673;48.980;8.138;2022-08-01T10:50:42;2.67;;;1.70;;
33993;SDS011;20673;48.980;8.138;2022-08-01T10:53:16;5.45;;;1.90;;
33993;SDS011;20673;48.980;8.138;2022-08-01T10:55:49;1.92;;;1.65;;
33993;SDS011;20673;48.980;8.138;2022-08-01T10:58:19;3.05;;;2.00;;
33993;SDS011;20673;48.980;8.138;2022-08-01T11:01:13;2.83;;;1.82;;
33993;SDS011;20673;48.980;8.138;2022-08-01T11:06:39;2.45;;;1.90;;
33993;SDS011;20673;48.980;8.138;2022-08-01T11:12:03;1.75;;;1.62;;
33993;SDS011;20673;48.980;8.138;2022-08-01T11:17:33;3.45;;;2.17;;
33993;SDS011;20673;48.980;8.138;2022-08-01T11:30:46;2.05;;;1.85;;
33993;SDS011;20673;48.980;8.138;2022-08-01T11:33:16;2.90;;;1.62;;
33993;SDS011;20673;48.980;8.138;2022-08-01T11:38:42;2.33;;;1.80;;
33993;SDS011;20673;48.980;8.138;2022-08-01T11:41:22;2.60;;;1.30;;
33993;SDS011;20673;48.980;8.138;2022-08-01T11:43:56;2.22;;;1.22;;
33993;SDS011;20673;48.980;8.138;2022-08-01T11:52:26;2.65;;;1.70;;
33993;SDS011;20673;48.980;8.138;2022-08-01T11:57:32;3.52;;;1.62;;
33993;SDS011;20673;48.980;8.138;2022-08-01T12:00:02;2.10;;;1.40;;
33993;SDS011;20673;48.980;8.138;2022-08-01T12:02:43;2.12;;;1.30;;
33993;SDS011;20673;48.980;8.138;2022-08-01T12:05:16;2.47;;;1.20;;
33993;SDS011;20673;48.980;8.138;2022-08-01T12:07:47;2.15;;;1.50;;
33993;SDS011;20673;48.980;8.138;2022-08-01T12:10:19;1.20;;;1.07;;
33993;SDS011;20673;48.980;8.138;2022-08-01T12:12:49;1.32;;;1.22;;
33993;SDS011;20673;48.980;8.138;2022-08-01T12:15:20;1.65;;;1.00;;
33993;SDS011;20673;48.980;8.138;2022-08-01T12:17:50;2.45;;;1.00;;
33993;SDS011;20673;48.980;8.138;2022-08-01T12:20:21;1.60;;;1.12;;
33993;SDS011;20673;48.980;8.138;2022-08-01T12:22:53;2.47;;;1.12;;
33993;SDS011;20673;48.980;8.138;2022-08-01T12:25:20;1.75;;;1.10;;
33993;SDS011;20673;48.980;8.138;2022-08-01T12:27:47;1.55;;;1.05;;
33993;SDS011;20673;48.980;8.138;2022-08-01T12:30:20;2.17;;;1.37;;
33993;SDS011;20673;48.980;8.138;2022-08-01T12:32:47;0.82;;;0.82;;
33993;SDS011;20673;48.980;8.138;2022-08-01T12:35:15;2.30;;;1.22;;
33993;SDS011;20673;48.980;8.138;2022-08-01T12:37:46;1.07;;;0.98;;
33993;SDS011;20673;48.980;8.138;2022-08-01T12:40:18;1.45;;;1.27;;
33993;SDS011;20673;48.980;8.138;2022-08-01T12:42:53;1.00;;;0.90;;
33993;SDS011;20673;48.980;8.138;2022-08-01T12:45:24;1.10;;;1.00;;
33993;SDS011;20673;48.980;8.138;2022-08-01T12:47:53;2.25;;;1.00;;
33993;SDS011;20673;48.980;8.138;2022-08-01T12:50:21;1.30;;;0.93;;
33993;SDS011;20673;48.980;8.138;2022-08-01T12:52:51;1.92;;;0.90;;
33993;SDS011;20673;48.980;8.138;2022-08-01T12:55:18;1.92;;;1.00;;
33993;SDS011;20673;48.980;8.138;2022-08-01T12:58:11;1.52;;;0.95;;
33993;SDS011;20673;48.980;8.138;2022-08-01T13:00:37;1.10;;;1.00;;
33993;SDS011;20673;48.980;8.138;2022-08-01T13:03:06;3.85;;;0.90;;
33993;SDS011;20673;48.980;8.138;2022-08-01T13:08:17;1.45;;;1.02;;
33993;SDS011;20673;48.980;8.138;2022-08-01T13:11:01;1.55;;;0.98;;
33993;SDS011;20673;48.980;8.138;2022-08-01T13:13:39;1.70;;;0.93;;
33993;SDS011;20673;48.980;8.138;2022-08-01T13:16:12;2.35;;;1.00;;
33993;SDS011;20673;48.980;8.138;2022-08-01T13:18:39;1.25;;;1.00;;
33993;SDS011;20673;48.980;8.138;2022-08-01T13:21:09;2.08;;;1.10;;
33993;SDS011;20673;48.980;8.138;2022-08-01T13:26:41;1.00;;;0.80;;
33993;SDS011;20673;48.980;8.138;2022-08-01T13:32:17;2.15;;;0.90;;
33993;SDS011;20673;48.980;8.138;2022-08-01T13:34:46;1.45;;;0.88;;
33993;SDS011;20673;48.980;8.138;2022-08-01T13:37:13;1.20;;;0.78;;
33993;SDS011;20673;48.980;8.138;2022-08-01T13:39:43;0.88;;;0.80;;
33993;SDS011;20673;48.980;8.138;2022-08-01T13:42:11;1.35;;;0.75;;
33993;SDS011;20673;48.980;8.138;2022-08-01T13:44:40;0.80;;;0.80;;
33993;SDS011;20673;48.980;8.138;2022-08-01T13:47:08;0.60;;;0.60;;
33993;SDS011;20673;48.980;8.138;2022-08-01T13:49:34;1.55;;;0.80;;
33993;SDS011;20673;48.980;8.138;2022-08-01T13:52:00;2.12;;;0.80;;
33993;SDS011;20673;48.980;8.138;2022-08-01T13:54:28;1.95;;;0.80;;
33993;SDS011;20673;48.980;8.138;2022-08-01T13:56:55;1.57;;;1.00;;
33993;SDS011;20673;48.980;8.138;2022-08-01T13:59:21;1.32;;;0.90;;
33993;SDS011;20673;48.980;8.138;2022-08-01T14:01:47;1.52;;;0.95;;
33993;SDS011;20673;48.980;8.138;2022-08-01T14:04:13;1.55;;;0.88;;
33993;SDS011;20673;48.980;8.138;2022-08-01T14:06:39;1.70;;;0.70;;
33993;SDS011;20673;48.980;8.138;2022-08-01T14:09:06;1.57;;;0.93;;
33993;SDS011;20673;48.980;8.138;2022-08-01T14:11:32;1.00;;;0.90;;
33993;SDS011;20673;48.980;8.138;2022-08-01T14:13:58;1.05;;;0.60;;
33993;SDS011;20673;48.980;8.138;2022-08-01T14:16:25;1.15;;;0.80;;
33993;SDS011;20673;48.980;8.138;2022-08-01T14:18:51;1.40;;;0.95;;
33993;SDS011;20673;48.980;8.138;2022-08-01T14:21:17;0.93;;;0.80;;
33993;SDS011;20673;48.980;8.138;2022-08-01T14:23:44;2.00;;;0.98;;
33993;SDS011;20673;48.980;8.138;2022-08-01T14:26:10;1.10;;;0.80;;
33993;SDS011;20673;48.980;8.138;2022-08-01T14:28:37;1.10;;;0.78;;
33993;SDS011;20673;48.980;8.138;2022-08-01T14:31:04;0.88;;;0.65;;
33993;SDS011;20673;48.980;8.138;2022-08-01T14:33:31;0.88;;;0.75;;
33993;SDS011;20673;48.980;8.138;2022-08-01T14:35:57;1.67;;;0.90;;
33993;SDS011;20673;48.980;8.138;2022-08-01T14:38:24;1.37;;;0.93;;
33993;SDS011;20673;48.980;8.138;2022-08-01T14:40:50;2.42;;;1.10;;
33993;SDS011;20673;48.980;8.138;2022-08-01T14:43:17;1.00;;;0.60;;
33993;SDS011;20673;48.980;8.138;2022-08-01T14:45:43;2.33;;;0.80;;
33993;SDS011;20673;48.980;8.138;2022-08-01T14:48:10;0.80;;;0.80;;
33993;SDS011;20673;48.980;8.138;2022-08-01T14:50:36;3.45;;;0.93;;
33993;SDS011;20673;48.980;8.138;2022-08-01T14:53:02;2.72;;;0.90;;
33993;SDS011;20673;48.980;8.138;2022-08-01T14:55:29;2.15;;;0.80;;
33993;SDS011;20673;48.980;8.138;2022-08-01T14:57:55;1.30;;;0.70;;
33993;SDS011;20673;48.980;8.138;2022-08-01T15:00:21;1.00;;;0.90;;
33993;SDS011;20673;48.980;8.138;2022-08-01T15:02:47;0.70;;;0.70;;
33993;SDS011;20673;48.980;8.138;2022-08-01T15:05:13;1.67;;;1.05;;
33993;SDS011;20673;48.980;8.138;2022-08-01T15:07:39;1.12;;;0.80;;
33993;SDS011;20673;48.980;8.138;2022-08-01T15:10:06;2.15;;;1.00;;
33993;SDS011;20673;48.980;8.138;2022-08-01T15:12:33;0.98;;;0.90;;
33993;SDS011;20673;48.980;8.138;2022-08-01T15:14:59;0.85;;;0.72;;
33993;SDS011;20673;48.980;8.138;2022-08-01T15:17:27;1.47;;;1.10;;
33993;SDS011;20673;48.980;8.138;2022-08-01T15:19:58;2.65;;;0.93;;
33993;SDS011;20673;48.980;8.138;2022-08-01T15:22:27;3.50;;;1.00;;
33993;SDS011;20673;48.980;8.138;2022-08-01T15:24:55;2.92;;;1.25;;
33993;SDS011;20673;48.980;8.138;2022-08-01T15:27:23;3.37;;;1.00;;
33993;SDS011;20673;48.980;8.138;2022-08-01T15:29:50;2.08;;;0.90;;
33993;SDS011;20673;48.980;8.138;2022-08-01T15:32:17;1.45;;;1.10;;
33993;SDS011;20673;48.980;8.138;2022-08-01T15:34:44;1.12;;;0.90;;
33993;SDS011;20673;48.980;8.138;2022-08-01T15:37:11;1.17;;;1.00;;
33993;SDS011;20673;48.980;8.138;2022-08-01T15:39:37;1.32;;;0.90;;
33993;SDS011;20673;48.980;8.138;2022-08-01T15:42:12;7.50;;;1.05;;
33993;SDS011;20673;48.980;8.138;2022-08-01T15:44:38;1.82;;;0.80;;
33993;SDS011;20673;48.980;8.138;2022-08-01T15:47:05;1.37;;;1.10;;
33993;SDS011;20673;48.980;8.138;2022-08-01T15:49:34;1.67;;;1.00;;
33993;SDS011;20673;48.980;8.138;2022-08-01T15:52:03;1.65;;;0.90;;
33993;SDS011;20673;48.980;8.138;2022-08-01T15:54:30;1.60;;;0.78;;
33993;SDS011;20673;48.980;8.138;2022-08-01T15:56:58;1.35;;;0.72;;
33993;SDS011;20673;48.980;8.138;2022-08-01T15:59:24;1.02;;;0.90;;
33993;SDS011;20673;48.980;8.138;2022-08-01T16:01:51;1.85;;;0.72;;
33993;SDS011;20673;48.980;8.138;2022-08-01T16:04:17;0.80;;;0.75;;